Terminal Aerodrome Forecast
Issued by NWS

Current Version | Previous Version | Text Only | Print | Product List | Glossary On
Versions: 1 2 3 4 5 6 7 8 9 10 11 12 13 14
000
FTUS45 KRIW 192323
TAFJAC
TAF
KJAC 192323Z 2000/2024 19006KT P6SM FEW250 WS015/22025KT
     FM201400 18006KT P6SM VCSH BKN060 WS015/22025KT
     FM201600 VRB06KT 5SM -SHRASN SCT025 BKN035
     FM202000 20015G25KT 5SM -SHRASN SCT020 BKN030
     FM202200 20020G30KT P6SM VCSH BKN035
      AMD LTD TO CLD VIS AND WIND=

USA.gov is the U.S. government's official web portal to all federal, state and local government web resources and services.